Schedule Details


Flight Number: CTN631
Departure: Pula (LDPL) at 06:00
Arrival: Zemunik (LDZD) at 06:35
Route: LOS N606 EBITA

Weather Information
LDPL 221600Z 14006KT 100V170 9999 FEW018 BKN032 20/16 Q1016 NOSIG
LDZD 221600Z 14011KT 110V170 9999 FEW040 21/13 Q1017 NOSIG
Schedule Frequency

Route Map